sensor_id;sensor_type;location;lat;lon;timestamp;temperature;humidity
45945;DHT22;31655;48.972;10.686;2022-08-06T00:00:46;16.60;99.90
45945;DHT22;31655;48.972;10.686;2022-08-06T00:03:11;16.60;99.90
45945;DHT22;31655;48.972;10.686;2022-08-06T00:05:37;16.90;99.90
45945;DHT22;31655;48.972;10.686;2022-08-06T00:08:03;17.50;99.90
45945;DHT22;31655;48.972;10.686;2022-08-06T00:10:29;16.30;99.90
45945;DHT22;31655;48.972;10.686;2022-08-06T00:12:54;16.30;99.90
45945;DHT22;31655;48.972;10.686;2022-08-06T00:15:20;16.30;99.90
45945;DHT22;31655;48.972;10.686;2022-08-06T00:17:46;16.20;99.90
45945;DHT22;31655;48.972;10.686;2022-08-06T00:20:14;16.30;99.90
45945;DHT22;31655;48.972;10.686;2022-08-06T00:22:41;16.20;99.90
45945;DHT22;31655;48.972;10.686;2022-08-06T00:25:07;16.30;99.90
45945;DHT22;31655;48.972;10.686;2022-08-06T00:27:33;16.20;99.90
45945;DHT22;31655;48.972;10.686;2022-08-06T00:29:59;16.10;99.90
45945;DHT22;31655;48.972;10.686;2022-08-06T00:32:25;16.20;99.90
45945;DHT22;31655;48.972;10.686;2022-08-06T00:34:51;16.10;99.90
45945;DHT22;31655;48.972;10.686;2022-08-06T00:37:17;16.10;99.90
45945;DHT22;31655;48.972;10.686;2022-08-06T00:39:42;16.10;99.90
45945;DHT22;31655;48.972;10.686;2022-08-06T00:42:08;16.10;99.90
45945;DHT22;31655;48.972;10.686;2022-08-06T00:44:34;16.10;99.90
45945;DHT22;31655;48.972;10.686;2022-08-06T00:47:00;16.10;99.90
45945;DHT22;31655;48.972;10.686;2022-08-06T00:49:25;16.10;99.90
45945;DHT22;31655;48.972;10.686;2022-08-06T00:51:51;16.10;99.90
45945;DHT22;31655;48.972;10.686;2022-08-06T00:54:17;16.10;99.90
45945;DHT22;31655;48.972;10.686;2022-08-06T00:56:43;16.00;99.90
45945;DHT22;31655;48.972;10.686;2022-08-06T00:59:08;17.00;99.90
45945;DHT22;31655;48.972;10.686;2022-08-06T01:01:34;16.00;99.90
45945;DHT22;31655;48.972;10.686;2022-08-06T01:03:59;15.90;99.90
45945;DHT22;31655;48.972;10.686;2022-08-06T01:06:25;15.90;99.90
45945;DHT22;31655;48.972;10.686;2022-08-06T01:08:50;15.90;99.90
45945;DHT22;31655;48.972;10.686;2022-08-06T01:11:16;15.90;99.90
45945;DHT22;31655;48.972;10.686;2022-08-06T01:13:42;15.90;99.90
45945;DHT22;31655;48.972;10.686;2022-08-06T01:18:50;15.80;99.90
45945;DHT22;31655;48.972;10.686;2022-08-06T01:21:38;15.90;99.90
45945;DHT22;31655;48.972;10.686;2022-08-06T01:29:42;15.80;99.90
45945;DHT22;31655;48.972;10.686;2022-08-06T01:32:15;15.70;99.90
45945;DHT22;31655;48.972;10.686;2022-08-06T01:34:48;16.50;99.90
45945;DHT22;31655;48.972;10.686;2022-08-06T01:37:23;15.80;99.90
45945;DHT22;31655;48.972;10.686;2022-08-06T01:39:55;15.80;99.90
45945;DHT22;31655;48.972;10.686;2022-08-06T01:42:23;16.60;99.90
45945;DHT22;31655;48.972;10.686;2022-08-06T01:44:53;15.70;99.90
45945;DHT22;31655;48.972;10.686;2022-08-06T01:47:20;16.00;99.90
45945;DHT22;31655;48.972;10.686;2022-08-06T01:49:48;18.10;99.90
45945;DHT22;31655;48.972;10.686;2022-08-06T01:52:16;15.70;99.90
45945;DHT22;31655;48.972;10.686;2022-08-06T01:54:45;15.70;99.90
45945;DHT22;31655;48.972;10.686;2022-08-06T01:57:11;15.60;99.90
45945;DHT22;31655;48.972;10.686;2022-08-06T01:59:45;15.60;99.90
45945;DHT22;31655;48.972;10.686;2022-08-06T02:02:17;15.70;99.90
45945;DHT22;31655;48.972;10.686;2022-08-06T02:04:46;15.60;99.90
45945;DHT22;31655;48.972;10.686;2022-08-06T02:07:14;15.60;99.90
45945;DHT22;31655;48.972;10.686;2022-08-06T02:09:43;15.60;99.90
45945;DHT22;31655;48.972;10.686;2022-08-06T02:12:13;16.30;99.90
45945;DHT22;31655;48.972;10.686;2022-08-06T02:14:46;15.70;99.90
45945;DHT22;31655;48.972;10.686;2022-08-06T02:17:14;15.70;99.90
45945;DHT22;31655;48.972;10.686;2022-08-06T02:19:46;15.70;99.90
45945;DHT22;31655;48.972;10.686;2022-08-06T02:22:13;15.70;99.90
45945;DHT22;31655;48.972;10.686;2022-08-06T02:24:38;16.50;99.90
45945;DHT22;31655;48.972;10.686;2022-08-06T02:27:05;16.60;99.90
45945;DHT22;31655;48.972;10.686;2022-08-06T02:29:33;17.10;99.90
45945;DHT22;31655;48.972;10.686;2022-08-06T02:31:59;15.70;99.90
45945;DHT22;31655;48.972;10.686;2022-08-06T02:34:25;16.40;99.90
45945;DHT22;31655;48.972;10.686;2022-08-06T02:37:18;16.70;99.90
45945;DHT22;31655;48.972;10.686;2022-08-06T02:39:49;15.60;99.90
45945;DHT22;31655;48.972;10.686;2022-08-06T02:42:30;16.00;99.90
45945;DHT22;31655;48.972;10.686;2022-08-06T02:45:27;15.60;99.90
45945;DHT22;31655;48.972;10.686;2022-08-06T02:48:07;15.60;99.90
45945;DHT22;31655;48.972;10.686;2022-08-06T02:50:39;15.50;99.90
45945;DHT22;31655;48.972;10.686;2022-08-06T02:53:08;15.60;99.90
45945;DHT22;31655;48.972;10.686;2022-08-06T02:55:38;15.60;99.90
45945;DHT22;31655;48.972;10.686;2022-08-06T02:58:32;15.50;99.90
45945;DHT22;31655;48.972;10.686;2022-08-06T03:00:59;15.50;99.90
45945;DHT22;31655;48.972;10.686;2022-08-06T03:03:29;15.60;99.90
45945;DHT22;31655;48.972;10.686;2022-08-06T03:05:56;15.50;99.90
45945;DHT22;31655;48.972;10.686;2022-08-06T03:08:24;16.10;99.90
45945;DHT22;31655;48.972;10.686;2022-08-06T03:10:53;15.60;99.90
45945;DHT22;31655;48.972;10.686;2022-08-06T03:13:21;15.40;99.90
45945;DHT22;31655;48.972;10.686;2022-08-06T03:15:48;15.70;99.90
45945;DHT22;31655;48.972;10.686;2022-08-06T03:18:15;15.50;99.90
45945;DHT22;31655;48.972;10.686;2022-08-06T03:20:42;17.10;99.90
45945;DHT22;31655;48.972;10.686;2022-08-06T03:23:09;15.50;99.90
45945;DHT22;31655;48.972;10.686;2022-08-06T03:25:38;15.40;99.90
45945;DHT22;31655;48.972;10.686;2022-08-06T03:28:04;16.10;99.90
45945;DHT22;31655;48.972;10.686;2022-08-06T03:30:30;15.40;99.90
45945;DHT22;31655;48.972;10.686;2022-08-06T03:32:57;15.30;99.90
45945;DHT22;31655;48.972;10.686;2022-08-06T03:35:23;16.10;99.90
45945;DHT22;31655;48.972;10.686;2022-08-06T03:37:51;15.30;99.90
45945;DHT22;31655;48.972;10.686;2022-08-06T03:40:18;15.30;99.90
45945;DHT22;31655;48.972;10.686;2022-08-06T03:42:45;15.20;99.90
45945;DHT22;31655;48.972;10.686;2022-08-06T03:45:11;15.30;99.90
45945;DHT22;31655;48.972;10.686;2022-08-06T03:47:41;15.20;99.90
45945;DHT22;31655;48.972;10.686;2022-08-06T03:50:19;15.30;99.90
45945;DHT22;31655;48.972;10.686;2022-08-06T03:52:48;15.30;99.90
45945;DHT22;31655;48.972;10.686;2022-08-06T03:55:22;15.60;99.90
45945;DHT22;31655;48.972;10.686;2022-08-06T03:57:50;15.10;99.90
45945;DHT22;31655;48.972;10.686;2022-08-06T04:00:20;17.80;99.90
45945;DHT22;31655;48.972;10.686;2022-08-06T04:02:53;15.10;99.90
45945;DHT22;31655;48.972;10.686;2022-08-06T04:05:23;15.20;99.90
45945;DHT22;31655;48.972;10.686;2022-08-06T04:07:54;15.10;99.90
45945;DHT22;31655;48.972;10.686;2022-08-06T04:10:23;15.00;99.90
45945;DHT22;31655;48.972;10.686;2022-08-06T04:12:49;15.00;99.90
45945;DHT22;31655;48.972;10.686;2022-08-06T04:15:15;14.90;99.90
45945;DHT22;31655;48.972;10.686;2022-08-06T04:17:44;15.20;99.90
45945;DHT22;31655;48.972;10.686;2022-08-06T04:20:11;14.90;99.90
45945;DHT22;31655;48.972;10.686;2022-08-06T04:22:39;15.00;99.90
45945;DHT22;31655;48.972;10.686;2022-08-06T04:25:05;14.90;99.90
45945;DHT22;31655;48.972;10.686;2022-08-06T04:27:31;14.90;99.90
45945;DHT22;31655;48.972;10.686;2022-08-06T04:30:00;15.00;99.90
45945;DHT22;31655;48.972;10.686;2022-08-06T04:32:26;14.90;99.90
45945;DHT22;31655;48.972;10.686;2022-08-06T04:34:52;14.90;99.90
45945;DHT22;31655;48.972;10.686;2022-08-06T04:37:19;14.90;99.90
45945;DHT22;31655;48.972;10.686;2022-08-06T04:39:45;15.00;99.90
45945;DHT22;31655;48.972;10.686;2022-08-06T04:42:11;15.30;99.90
45945;DHT22;31655;48.972;10.686;2022-08-06T04:44:37;16.80;99.90
45945;DHT22;31655;48.972;10.686;2022-08-06T04:47:04;16.80;99.90
45945;DHT22;31655;48.972;10.686;2022-08-06T04:49:30;15.00;99.90
45945;DHT22;31655;48.972;10.686;2022-08-06T04:51:55;15.10;99.90
45945;DHT22;31655;48.972;10.686;2022-08-06T04:54:21;15.10;99.90
45945;DHT22;31655;48.972;10.686;2022-08-06T04:56:47;15.10;99.90
45945;DHT22;31655;48.972;10.686;2022-08-06T04:59:13;15.10;99.90
45945;DHT22;31655;48.972;10.686;2022-08-06T05:01:38;15.00;99.90
45945;DHT22;31655;48.972;10.686;2022-08-06T05:04:04;15.00;99.90
45945;DHT22;31655;48.972;10.686;2022-08-06T05:09:17;14.90;99.90
45945;DHT22;31655;48.972;10.686;2022-08-06T05:11:48;14.90;99.90
45945;DHT22;31655;48.972;10.686;2022-08-06T05:14:20;15.00;99.90
45945;DHT22;31655;48.972;10.686;2022-08-06T05:16:50;15.00;99.90
45945;DHT22;31655;48.972;10.686;2022-08-06T05:19:24;15.50;99.90
45945;DHT22;31655;48.972;10.686;2022-08-06T05:21:52;15.00;99.90
45945;DHT22;31655;48.972;10.686;2022-08-06T05:24:18;14.90;99.90
45945;DHT22;31655;48.972;10.686;2022-08-06T05:26:44;14.90;99.90
45945;DHT22;31655;48.972;10.686;2022-08-06T05:29:11;14.90;99.90
45945;DHT22;31655;48.972;10.686;2022-08-06T05:31:38;15.00;99.90
45945;DHT22;31655;48.972;10.686;2022-08-06T05:34:09;15.00;99.90
45945;DHT22;31655;48.972;10.686;2022-08-06T05:36:35;15.10;99.90
45945;DHT22;31655;48.972;10.686;2022-08-06T05:39:01;15.30;99.90
45945;DHT22;31655;48.972;10.686;2022-08-06T05:41:27;15.10;99.90
45945;DHT22;31655;48.972;10.686;2022-08-06T05:43:55;15.60;99.90
45945;DHT22;31655;48.972;10.686;2022-08-06T05:46:22;15.50;99.90
45945;DHT22;31655;48.972;10.686;2022-08-06T05:49:09;15.30;99.90
45945;DHT22;31655;48.972;10.686;2022-08-06T05:54:30;15.90;99.90
45945;DHT22;31655;48.972;10.686;2022-08-06T05:57:04;16.40;99.90
45945;DHT22;31655;48.972;10.686;2022-08-06T05:59:33;16.70;99.90
45945;DHT22;31655;48.972;10.686;2022-08-06T06:02:01;16.70;99.90
45945;DHT22;31655;48.972;10.686;2022-08-06T06:04:27;17.00;99.90
45945;DHT22;31655;48.972;10.686;2022-08-06T06:06:54;17.90;99.90
45945;DHT22;31655;48.972;10.686;2022-08-06T06:09:20;18.60;99.90
45945;DHT22;31655;48.972;10.686;2022-08-06T06:11:46;18.80;99.90
45945;DHT22;31655;48.972;10.686;2022-08-06T06:14:41;18.70;99.90
45945;DHT22;31655;48.972;10.686;2022-08-06T06:19:41;18.90;99.90
45945;DHT22;31655;48.972;10.686;2022-08-06T06:24:48;19.80;99.90
45945;DHT22;31655;48.972;10.686;2022-08-06T06:27:33;20.40;99.90
45945;DHT22;31655;48.972;10.686;2022-08-06T06:30:04;21.00;99.90
45945;DHT22;31655;48.972;10.686;2022-08-06T06:35:27;21.70;99.90
45945;DHT22;31655;48.972;10.686;2022-08-06T06:40:53;23.10;99.90
45945;DHT22;31655;48.972;10.686;2022-08-06T06:43:27;23.30;99.90
45945;DHT22;31655;48.972;10.686;2022-08-06T06:46:04;23.30;99.90
45945;DHT22;31655;48.972;10.686;2022-08-06T06:48:40;23.20;99.90
45945;DHT22;31655;48.972;10.686;2022-08-06T06:51:08;23.90;98.60
45945;DHT22;31655;48.972;10.686;2022-08-06T06:53:39;24.80;97.10
45945;DHT22;31655;48.972;10.686;2022-08-06T06:56:07;24.60;95.50
45945;DHT22;31655;48.972;10.686;2022-08-06T07:01:37;24.60;93.80
45945;DHT22;31655;48.972;10.686;2022-08-06T07:04:07;24.70;93.60
45945;DHT22;31655;48.972;10.686;2022-08-06T07:06:36;24.80;92.90
45945;DHT22;31655;48.972;10.686;2022-08-06T07:09:03;24.80;92.30
45945;DHT22;31655;48.972;10.686;2022-08-06T07:11:30;24.60;92.70
45945;DHT22;31655;48.972;10.686;2022-08-06T07:13:58;24.70;92.60
45945;DHT22;31655;48.972;10.686;2022-08-06T07:16:25;24.80;91.50
45945;DHT22;31655;48.972;10.686;2022-08-06T07:18:52;24.20;92.30
45945;DHT22;31655;48.972;10.686;2022-08-06T07:21:20;24.50;92.30
45945;DHT22;31655;48.972;10.686;2022-08-06T07:23:48;24.80;92.10
45945;DHT22;31655;48.972;10.686;2022-08-06T07:26:17;25.80;91.50
45945;DHT22;31655;48.972;10.686;2022-08-06T07:28:44;24.50;91.00
45945;DHT22;31655;48.972;10.686;2022-08-06T07:31:10;24.50;91.10
45945;DHT22;31655;48.972;10.686;2022-08-06T07:33:41;23.70;91.10
45945;DHT22;31655;48.972;10.686;2022-08-06T07:36:08;23.60;91.50
45945;DHT22;31655;48.972;10.686;2022-08-06T07:38:39;22.90;92.30
45945;DHT22;31655;48.972;10.686;2022-08-06T07:41:06;23.20;92.70
45945;DHT22;31655;48.972;10.686;2022-08-06T07:43:54;23.30;91.60
45945;DHT22;31655;48.972;10.686;2022-08-06T07:46:26;23.20;91.90
45945;DHT22;31655;48.972;10.686;2022-08-06T07:48:59;23.20;92.00
45945;DHT22;31655;48.972;10.686;2022-08-06T07:51:29;23.10;91.40
45945;DHT22;31655;48.972;10.686;2022-08-06T07:53:58;23.00;91.40
45945;DHT22;31655;48.972;10.686;2022-08-06T07:56:25;23.00;91.40
45945;DHT22;31655;48.972;10.686;2022-08-06T08:01:18;22.80;91.30
45945;DHT22;31655;48.972;10.686;2022-08-06T08:03:43;22.60;91.70
45945;DHT22;31655;48.972;10.686;2022-08-06T08:06:28;25.10;92.30
45945;DHT22;31655;48.972;10.686;2022-08-06T08:09:03;23.60;90.80
45945;DHT22;31655;48.972;10.686;2022-08-06T08:11:30;23.80;91.00
45945;DHT22;31655;48.972;10.686;2022-08-06T08:13:56;23.70;90.40
45945;DHT22;31655;48.972;10.686;2022-08-06T08:16:27;23.70;89.00
45945;DHT22;31655;48.972;10.686;2022-08-06T08:18:53;23.50;89.90
45945;DHT22;31655;48.972;10.686;2022-08-06T08:21:20;23.90;88.80
45945;DHT22;31655;48.972;10.686;2022-08-06T08:23:47;24.50;87.30
45945;DHT22;31655;48.972;10.686;2022-08-06T08:26:14;25.00;85.10
45945;DHT22;31655;48.972;10.686;2022-08-06T08:28:39;25.50;82.70
45945;DHT22;31655;48.972;10.686;2022-08-06T08:31:05;26.00;80.30
45945;DHT22;31655;48.972;10.686;2022-08-06T08:33:32;26.00;78.90
45945;DHT22;31655;48.972;10.686;2022-08-06T08:35:59;25.80;76.80
45945;DHT22;31655;48.972;10.686;2022-08-06T08:38:26;25.50;77.10
45945;DHT22;31655;48.972;10.686;2022-08-06T08:40:54;25.60;75.90
45945;DHT22;31655;48.972;10.686;2022-08-06T08:43:23;25.50;76.40
45945;DHT22;31655;48.972;10.686;2022-08-06T08:45:50;25.90;74.90
45945;DHT22;31655;48.972;10.686;2022-08-06T08:48:24;25.70;74.70
45945;DHT22;31655;48.972;10.686;2022-08-06T08:50:50;26.00;75.40
45945;DHT22;31655;48.972;10.686;2022-08-06T08:53:22;27.00;73.40
45945;DHT22;31655;48.972;10.686;2022-08-06T08:55:50;26.30;73.60
45945;DHT22;31655;48.972;10.686;2022-08-06T08:58:16;26.30;71.40
45945;DHT22;31655;48.972;10.686;2022-08-06T09:00:42;25.70;73.10
45945;DHT22;31655;48.972;10.686;2022-08-06T09:03:08;25.40;72.30
45945;DHT22;31655;48.972;10.686;2022-08-06T09:05:36;24.80;73.10
45945;DHT22;31655;48.972;10.686;2022-08-06T09:08:02;24.30;74.20
45945;DHT22;31655;48.972;10.686;2022-08-06T09:10:29;24.10;73.90
45945;DHT22;31655;48.972;10.686;2022-08-06T09:12:55;24.20;74.70
45945;DHT22;31655;48.972;10.686;2022-08-06T09:15:20;24.40;73.80
45945;DHT22;31655;48.972;10.686;2022-08-06T09:17:47;24.60;73.20
45945;DHT22;31655;48.972;10.686;2022-08-06T09:20:13;24.90;72.00
45945;DHT22;31655;48.972;10.686;2022-08-06T09:22:38;25.00;70.70
45945;DHT22;31655;48.972;10.686;2022-08-06T09:25:04;25.20;71.50
45945;DHT22;31655;48.972;10.686;2022-08-06T09:27:34;25.10;70.90
45945;DHT22;31655;48.972;10.686;2022-08-06T09:30:05;25.20;70.00
45945;DHT22;31655;48.972;10.686;2022-08-06T09:32:42;25.50;69.10
45945;DHT22;31655;48.972;10.686;2022-08-06T09:37:48;25.20;69.50
45945;DHT22;31655;48.972;10.686;2022-08-06T09:40:16;25.70;68.40
45945;DHT22;31655;48.972;10.686;2022-08-06T09:42:45;25.90;67.30
45945;DHT22;31655;48.972;10.686;2022-08-06T09:45:13;27.20;64.90
45945;DHT22;31655;48.972;10.686;2022-08-06T09:47:40;27.20;65.60
45945;DHT22;31655;48.972;10.686;2022-08-06T09:50:06;27.60;64.30
45945;DHT22;31655;48.972;10.686;2022-08-06T09:52:32;28.30;63.20
45945;DHT22;31655;48.972;10.686;2022-08-06T09:54:57;28.80;62.20
45945;DHT22;31655;48.972;10.686;2022-08-06T09:57:40;29.20;60.50
45945;DHT22;31655;48.972;10.686;2022-08-06T10:00:07;29.30;59.80
45945;DHT22;31655;48.972;10.686;2022-08-06T10:02:34;29.30;60.00
45945;DHT22;31655;48.972;10.686;2022-08-06T10:05:11;29.60;58.90
45945;DHT22;31655;48.972;10.686;2022-08-06T10:07:37;28.70;58.50
45945;DHT22;31655;48.972;10.686;2022-08-06T10:10:03;29.00;58.20
45945;DHT22;31655;48.972;10.686;2022-08-06T10:12:30;29.30;58.20
45945;DHT22;31655;48.972;10.686;2022-08-06T10:14:56;29.90;57.30
45945;DHT22;31655;48.972;10.686;2022-08-06T10:17:23;29.70;57.30
45945;DHT22;31655;48.972;10.686;2022-08-06T10:20:11;29.10;57.30
45945;DHT22;31655;48.972;10.686;2022-08-06T10:22:54;29.00;57.50
45945;DHT22;31655;48.972;10.686;2022-08-06T10:25:23;29.30;56.60
45945;DHT22;31655;48.972;10.686;2022-08-06T10:27:53;28.70;57.40
45945;DHT22;31655;48.972;10.686;2022-08-06T10:30:20;29.00;57.60
45945;DHT22;31655;48.972;10.686;2022-08-06T10:35:17;27.90;58.10
45945;DHT22;31655;48.972;10.686;2022-08-06T10:37:45;27.80;57.50
45945;DHT22;31655;48.972;10.686;2022-08-06T10:40:14;27.70;58.90
45945;DHT22;31655;48.972;10.686;2022-08-06T10:42:40;29.90;59.00
45945;DHT22;31655;48.972;10.686;2022-08-06T10:45:11;28.70;56.60
45945;DHT22;31655;48.972;10.686;2022-08-06T10:47:39;28.60;56.30
45945;DHT22;31655;48.972;10.686;2022-08-06T10:50:05;28.30;57.10
45945;DHT22;31655;48.972;10.686;2022-08-06T10:52:31;28.10;57.20
45945;DHT22;31655;48.972;10.686;2022-08-06T10:54:57;28.50;57.50
45945;DHT22;31655;48.972;10.686;2022-08-06T10:57:26;28.70;56.10
45945;DHT22;31655;48.972;10.686;2022-08-06T10:59:52;28.80;56.00
45945;DHT22;31655;48.972;10.686;2022-08-06T11:05:12;27.90;56.30
45945;DHT22;31655;48.972;10.686;2022-08-06T11:13:36;27.20;58.40
45945;DHT22;31655;48.972;10.686;2022-08-06T11:16:03;27.60;58.80
45945;DHT22;31655;48.972;10.686;2022-08-06T11:18:29;27.70;58.90
45945;DHT22;31655;48.972;10.686;2022-08-06T11:20:55;28.00;58.50
45945;DHT22;31655;48.972;10.686;2022-08-06T11:23:27;28.40;57.90
45945;DHT22;31655;48.972;10.686;2022-08-06T11:25:57;27.50;58.90
45945;DHT22;31655;48.972;10.686;2022-08-06T11:31:02;26.30;59.40
45945;DHT22;31655;48.972;10.686;2022-08-06T11:36:07;25.10;61.90
45945;DHT22;31655;48.972;10.686;2022-08-06T11:41:29;24.60;64.10
45945;DHT22;31655;48.972;10.686;2022-08-06T11:46:25;25.00;61.70
45945;DHT22;31655;48.972;10.686;2022-08-06T11:54:25;25.70;61.00
45945;DHT22;31655;48.972;10.686;2022-08-06T11:57:17;25.60;62.20
45945;DHT22;31655;48.972;10.686;2022-08-06T12:08:19;24.80;62.00
45945;DHT22;31655;48.972;10.686;2022-08-06T12:11:23;24.70;62.90
45945;DHT22;31655;48.972;10.686;2022-08-06T12:13:49;24.50;62.50
45945;DHT22;31655;48.972;10.686;2022-08-06T12:16:35;24.20;63.10
45945;DHT22;31655;48.972;10.686;2022-08-06T12:19:03;24.10;63.00
45945;DHT22;31655;48.972;10.686;2022-08-06T12:21:29;24.40;62.60
45945;DHT22;31655;48.972;10.686;2022-08-06T12:23:55;24.70;62.20
45945;DHT22;31655;48.972;10.686;2022-08-06T12:26:21;24.60;62.60
45945;DHT22;31655;48.972;10.686;2022-08-06T12:28:48;24.60;62.80
45945;DHT22;31655;48.972;10.686;2022-08-06T12:31:27;24.60;62.30
45945;DHT22;31655;48.972;10.686;2022-08-06T12:33:53;24.50;62.20
45945;DHT22;31655;48.972;10.686;2022-08-06T12:36:19;24.70;61.70
45945;DHT22;31655;48.972;10.686;2022-08-06T12:38:53;24.40;62.10
45945;DHT22;31655;48.972;10.686;2022-08-06T12:41:19;24.50;61.10
45945;DHT22;31655;48.972;10.686;2022-08-06T12:43:45;24.40;61.30
45945;DHT22;31655;48.972;10.686;2022-08-06T12:46:11;24.20;62.00
45945;DHT22;31655;48.972;10.686;2022-08-06T12:48:37;24.00;62.30
45945;DHT22;31655;48.972;10.686;2022-08-06T12:51:11;24.10;62.10
45945;DHT22;31655;48.972;10.686;2022-08-06T12:53:53;24.00;62.10
45945;DHT22;31655;48.972;10.686;2022-08-06T12:56:21;24.10;62.00
45945;DHT22;31655;48.972;10.686;2022-08-06T12:58:49;24.20;62.40
45945;DHT22;31655;48.972;10.686;2022-08-06T13:01:21;24.20;61.90
45945;DHT22;31655;48.972;10.686;2022-08-06T13:03:49;24.40;61.80
45945;DHT22;31655;48.972;10.686;2022-08-06T13:06:18;24.50;61.50
45945;DHT22;31655;48.972;10.686;2022-08-06T13:08:46;24.60;60.60
45945;DHT22;31655;48.972;10.686;2022-08-06T13:11:12;24.60;61.20
45945;DHT22;31655;48.972;10.686;2022-08-06T13:13:50;26.20;62.20
45945;DHT22;31655;48.972;10.686;2022-08-06T13:16:17;24.70;60.50
45945;DHT22;31655;48.972;10.686;2022-08-06T13:19:02;26.10;62.60
45945;DHT22;31655;48.972;10.686;2022-08-06T13:21:29;24.60;61.60
45945;DHT22;31655;48.972;10.686;2022-08-06T13:23:55;24.80;61.20
45945;DHT22;31655;48.972;10.686;2022-08-06T13:26:28;24.80;61.30
45945;DHT22;31655;48.972;10.686;2022-08-06T13:29:12;24.70;60.90
45945;DHT22;31655;48.972;10.686;2022-08-06T13:31:41;24.60;60.00
45945;DHT22;31655;48.972;10.686;2022-08-06T13:34:09;24.40;60.80
45945;DHT22;31655;48.972;10.686;2022-08-06T13:36:36;24.30;60.60
45945;DHT22;31655;48.972;10.686;2022-08-06T13:39:26;24.10;60.60
45945;DHT22;31655;48.972;10.686;2022-08-06T13:42:03;24.10;61.80
45945;DHT22;31655;48.972;10.686;2022-08-06T13:44:35;24.00;61.20
45945;DHT22;31655;48.972;10.686;2022-08-06T13:47:02;24.10;61.50
45945;DHT22;31655;48.972;10.686;2022-08-06T13:49:28;24.20;60.80
45945;DHT22;31655;48.972;10.686;2022-08-06T13:51:53;24.20;59.70
45945;DHT22;31655;48.972;10.686;2022-08-06T13:54:23;24.00;60.10
45945;DHT22;31655;48.972;10.686;2022-08-06T13:56:50;24.10;60.30
45945;DHT22;31655;48.972;10.686;2022-08-06T13:59:16;24.10;60.50
45945;DHT22;31655;48.972;10.686;2022-08-06T14:01:42;25.50;61.10
45945;DHT22;31655;48.972;10.686;2022-08-06T14:04:08;24.20;60.30
45945;DHT22;31655;48.972;10.686;2022-08-06T14:06:34;24.40;59.60
45945;DHT22;31655;48.972;10.686;2022-08-06T14:08:59;24.30;59.00
45945;DHT22;31655;48.972;10.686;2022-08-06T14:11:25;26.40;61.40
45945;DHT22;31655;48.972;10.686;2022-08-06T14:13:51;24.10;60.00
45945;DHT22;31655;48.972;10.686;2022-08-06T14:16:18;24.20;59.80
45945;DHT22;31655;48.972;10.686;2022-08-06T14:18:43;24.10;59.60
45945;DHT22;31655;48.972;10.686;2022-08-06T14:21:09;24.30;59.60
45945;DHT22;31655;48.972;10.686;2022-08-06T14:23:35;24.40;59.30
45945;DHT22;31655;48.972;10.686;2022-08-06T14:26:00;24.50;58.80
45945;DHT22;31655;48.972;10.686;2022-08-06T14:28:33;24.50;59.30
45945;DHT22;31655;48.972;10.686;2022-08-06T14:30:59;24.60;58.40
45945;DHT22;31655;48.972;10.686;2022-08-06T14:33:24;24.50;58.20
45945;DHT22;31655;48.972;10.686;2022-08-06T14:35:50;24.40;58.60
45945;DHT22;31655;48.972;10.686;2022-08-06T14:38:21;24.30;58.70
45945;DHT22;31655;48.972;10.686;2022-08-06T14:40:47;24.20;58.70
45945;DHT22;31655;48.972;10.686;2022-08-06T14:43:32;24.10;58.90
45945;DHT22;31655;48.972;10.686;2022-08-06T14:46:16;24.10;59.60
45945;DHT22;31655;48.972;10.686;2022-08-06T14:48:41;24.00;59.60
45945;DHT22;31655;48.972;10.686;2022-08-06T14:51:07;24.20;59.20
45945;DHT22;31655;48.972;10.686;2022-08-06T14:53:32;24.40;59.30
45945;DHT22;31655;48.972;10.686;2022-08-06T14:55:58;24.20;58.70
45945;DHT22;31655;48.972;10.686;2022-08-06T14:58:24;24.20;58.60
45945;DHT22;31655;48.972;10.686;2022-08-06T15:00:49;24.30;59.10
45945;DHT22;31655;48.972;10.686;2022-08-06T15:03:17;24.10;59.60
45945;DHT22;31655;48.972;10.686;2022-08-06T15:05:44;24.30;59.10
45945;DHT22;31655;48.972;10.686;2022-08-06T15:08:10;24.50;59.10
45945;DHT22;31655;48.972;10.686;2022-08-06T15:10:36;24.50;58.20
45945;DHT22;31655;48.972;10.686;2022-08-06T15:13:02;24.40;58.70
45945;DHT22;31655;48.972;10.686;2022-08-06T15:15:27;24.30;57.80
45945;DHT22;31655;48.972;10.686;2022-08-06T15:17:53;25.10;57.80
45945;DHT22;31655;48.972;10.686;2022-08-06T15:20:19;24.50;57.00
45945;DHT22;31655;48.972;10.686;2022-08-06T15:22:44;24.30;56.80
45945;DHT22;31655;48.972;10.686;2022-08-06T15:25:10;24.30;57.30
45945;DHT22;31655;48.972;10.686;2022-08-06T15:27:35;24.50;57.10
45945;DHT22;31655;48.972;10.686;2022-08-06T15:30:02;24.60;57.30
45945;DHT22;31655;48.972;10.686;2022-08-06T15:32:27;24.50;58.10
45945;DHT22;31655;48.972;10.686;2022-08-06T15:34:53;24.60;58.00
45945;DHT22;31655;48.972;10.686;2022-08-06T15:37:19;24.80;57.50
45945;DHT22;31655;48.972;10.686;2022-08-06T15:39:45;25.00;57.30
45945;DHT22;31655;48.972;10.686;2022-08-06T15:42:11;24.90;57.40
45945;DHT22;31655;48.972;10.686;2022-08-06T15:44:37;24.70;56.50
45945;DHT22;31655;48.972;10.686;2022-08-06T15:47:04;24.50;57.10
45945;DHT22;31655;48.972;10.686;2022-08-06T15:49:29;24.30;57.40
45945;DHT22;31655;48.972;10.686;2022-08-06T15:51:55;24.30;56.90
45945;DHT22;31655;48.972;10.686;2022-08-06T15:54:21;24.30;57.00
45945;DHT22;31655;48.972;10.686;2022-08-06T15:56:47;24.20;56.90
45945;DHT22;31655;48.972;10.686;2022-08-06T15:59:12;24.20;56.30
45945;DHT22;31655;48.972;10.686;2022-08-06T16:01:40;24.10;56.90
45945;DHT22;31655;48.972;10.686;2022-08-06T16:04:06;24.00;56.40
45945;DHT22;31655;48.972;10.686;2022-08-06T16:06:32;23.90;56.50
45945;DHT22;31655;48.972;10.686;2022-08-06T16:08:58;23.80;56.40
45945;DHT22;31655;48.972;10.686;2022-08-06T16:11:24;23.80;55.40
45945;DHT22;31655;48.972;10.686;2022-08-06T16:13:50;23.80;55.60
45945;DHT22;31655;48.972;10.686;2022-08-06T16:16:15;23.70;56.10
45945;DHT22;31655;48.972;10.686;2022-08-06T16:18:41;23.70;56.40
45945;DHT22;31655;48.972;10.686;2022-08-06T16:21:08;24.30;56.30
45945;DHT22;31655;48.972;10.686;2022-08-06T16:23:34;23.80;56.70
45945;DHT22;31655;48.972;10.686;2022-08-06T16:25:59;23.80;56.60
45945;DHT22;31655;48.972;10.686;2022-08-06T16:28:25;24.20;56.40
45945;DHT22;31655;48.972;10.686;2022-08-06T16:30:50;23.70;56.90
45945;DHT22;31655;48.972;10.686;2022-08-06T16:33:16;23.70;56.90